Airfield :
LOGIN :

Register | Disclaimer

   EN    FR    IT 

 










Legend :    VFR   Marginal VFR   IFR   Intensive IFR   Very Intensive IFR
Visi :
Ceiling :
>= 8 km
>= 3000ft
5 to 8 km
1000 to 3000 ft
1500m to 5 km
500 to 1000 ft
800 to 1500m
200 to 500 ft
< 800m
< 200 ft
Symbols :   Thunderstorms  Fog  Heavy snow  Heavy precipitations  Wind > 20 kt
SIGMETs :     Misc.  Thunderstorms  Icing  Turbulence  Mountain Waves  Volcanic Ashes






- Airport Elevation : 796 ft
- IATA code : SYT


LFLN - Saint-Yan

CURRENT METAR :
  • 231400Z AUTO 27009KT 230V320 CAVOK 19/02 Q1028 NOSIG

EXPIRED METARs :
  • 231330Z AUTO 23004KT 180V290 CAVOK 19/04 Q1028 NOSIG
  • 231300Z AUTO 21005KT 170V250 CAVOK 18/03 Q1028 NOSIG
  • 231230Z AUTO 20004KT 170V250 CAVOK 17/03 Q1029 NOSIG
  • 231200Z AUTO 19005KT 160V230 CAVOK 16/04 Q1029 NOSIG
  • 231130Z AUTO 18004KT 150V260 CAVOK 14/04 Q1030 NOSIG
  • 231100Z AUTO 19006KT 170V230 CAVOK 14/03 Q1030 NOSIG

TAF TAF LFLN
Valid from the 23 at 12:00 until the 23 at 21:00 UTC


231100Z 2312/2321 24007KT CAVOK
BECMG 2318/2320 BKN020



MET'MAP, your aeronautical weather chart ! - Copyright ORBIFLY December 2007 - Disclaimer

ORBIFLY MET'MAP TEAM :

Programming & Development : Alexandra Zaïnal
Concept & original design : Baudouin d'Aumeries
Assistance for programming : Marc-Olivier Méhu
Technical & hardware support : Manuel Goepfert

Contact : metmap@orbifly.com




SOURCES & CREDITS :

   NOAA